createdAt,value
2023-04-22T00:00:42.829Z,9.73
2023-04-22T00:03:10.203Z,8.20
2023-04-22T00:05:38.069Z,8.33
2023-04-22T00:08:05.095Z,7.90
2023-04-22T00:10:31.891Z,8.23
2023-04-22T00:12:58.731Z,8.13
2023-04-22T00:15:26.710Z,7.80
2023-04-22T00:17:53.891Z,7.90
2023-04-22T00:20:21.871Z,7.73
2023-04-22T00:22:48.732Z,7.97
2023-04-22T00:25:16.610Z,7.70
2023-04-22T00:27:50.102Z,8.00
2023-04-22T00:30:17.013Z,7.80
2023-04-22T00:32:43.900Z,7.63
2023-04-22T00:35:10.962Z,7.50
2023-04-22T00:37:37.781Z,7.03
2023-04-22T00:40:05.628Z,7.53
2023-04-22T00:42:32.810Z,7.53
2023-04-22T00:45:00.677Z,8.10
2023-04-22T00:47:28.050Z,7.53
2023-04-22T00:49:55.169Z,7.57
2023-04-22T00:52:22.346Z,8.07
2023-04-22T00:54:49.772Z,7.40
2023-04-22T00:57:18.388Z,7.90
2023-04-22T00:59:45.936Z,7.80
2023-04-22T01:02:13.375Z,7.73
2023-04-22T01:04:40.346Z,7.83
2023-04-22T01:07:07.193Z,7.83
2023-04-22T01:09:34.850Z,7.40
2023-04-22T01:12:02.094Z,7.40
2023-04-22T01:14:29.179Z,7.60
2023-04-22T01:16:56.397Z,7.40
2023-04-22T01:19:23.874Z,7.73
2023-04-22T01:21:55.834Z,7.37
2023-04-22T01:24:22.672Z,7.40
2023-04-22T01:26:49.496Z,7.30
2023-04-22T01:29:16.337Z,7.20
2023-04-22T01:31:43.419Z,7.70
2023-04-22T01:34:10.895Z,7.20
2023-04-22T01:36:38.051Z,7.33
2023-04-22T01:39:05.137Z,7.43
2023-04-22T01:41:32.026Z,7.47
2023-04-22T01:44:00.242Z,7.43
2023-04-22T01:46:27.189Z,7.77
2023-04-22T01:48:54.500Z,6.93
2023-04-22T01:51:21.654Z,8.03
2023-04-22T01:53:49.140Z,7.37
2023-04-22T01:56:16.095Z,7.23
2023-04-22T01:58:43.158Z,7.00
2023-04-22T02:01:11.377Z,6.90
2023-04-22T02:03:38.601Z,6.73
2023-04-22T02:06:05.916Z,7.43
2023-04-22T02:08:32.724Z,6.80
2023-04-22T02:11:00.892Z,6.73
2023-04-22T02:13:36.350Z,6.77
2023-04-22T02:16:03.566Z,6.97
2023-04-22T02:18:30.713Z,7.00
2023-04-22T02:20:57.960Z,6.23
2023-04-22T02:23:25.476Z,6.90
2023-04-22T02:25:52.738Z,6.30
2023-04-22T02:28:19.727Z,6.53
2023-04-22T02:30:46.725Z,6.60
2023-04-22T02:33:13.765Z,6.83
2023-04-22T02:35:40.570Z,7.63
2023-04-22T02:38:07.355Z,7.03
2023-04-22T02:40:34.196Z,6.07
2023-04-22T02:43:00.998Z,6.50
2023-04-22T02:45:27.811Z,6.70
2023-04-22T02:47:54.624Z,6.80
2023-04-22T02:50:21.681Z,7.00
2023-04-22T02:52:48.489Z,6.77
2023-04-22T02:55:15.711Z,6.77
2023-04-22T02:57:42.554Z,6.80
2023-04-22T03:00:10.667Z,7.00
2023-04-22T03:02:38.709Z,6.47
2023-04-22T03:05:06.173Z,6.67
2023-04-22T03:07:33.008Z,6.77
2023-04-22T03:09:59.780Z,6.80
2023-04-22T03:12:26.816Z,6.47
2023-04-22T03:14:53.620Z,6.80
2023-04-22T03:17:20.698Z,6.77
2023-04-22T03:19:47.778Z,6.77
2023-04-22T03:22:14.564Z,6.83
2023-04-22T03:24:41.431Z,6.40
2023-04-22T03:27:09.461Z,7.23
2023-04-22T03:29:36.250Z,6.50
2023-04-22T03:32:03.118Z,6.77
2023-04-22T03:34:29.901Z,6.83
2023-04-22T03:36:56.725Z,6.37
2023-04-22T03:39:23.572Z,7.10
2023-04-22T03:41:50.453Z,6.50
2023-04-22T03:44:17.241Z,6.80
2023-04-22T03:46:44.118Z,6.30
2023-04-22T03:49:12.068Z,6.53
2023-04-22T03:51:38.959Z,6.63
2023-04-22T03:54:05.863Z,6.50
2023-04-22T03:56:33.743Z,6.70
2023-04-22T03:59:00.512Z,7.07
2023-04-22T04:01:27.708Z,6.60
2023-04-22T04:03:54.733Z,6.43
2023-04-22T04:06:21.880Z,6.07
2023-04-22T04:08:48.693Z,7.00
2023-04-22T04:11:15.599Z,6.77
2023-04-22T04:13:42.430Z,6.83
2023-04-22T04:16:10.200Z,6.90
2023-04-22T04:18:37.453Z,7.10
2023-04-22T04:21:04.484Z,6.87
2023-04-22T04:23:32.162Z,6.97
2023-04-22T04:26:02.918Z,6.97
2023-04-22T04:28:33.054Z,6.70
2023-04-22T04:31:00.761Z,7.03
2023-04-22T04:33:28.654Z,6.07
2023-04-22T04:35:55.479Z,6.53
2023-04-22T04:38:22.259Z,6.70
2023-04-22T04:40:50.929Z,6.73
2023-04-22T04:43:17.726Z,6.30
2023-04-22T04:45:48.317Z,6.03
2023-04-22T04:48:16.758Z,7.67
2023-04-22T04:50:44.201Z,6.60
2023-04-22T04:53:11.923Z,6.57
2023-04-22T04:55:39.115Z,6.70
2023-04-22T04:58:05.955Z,6.20
2023-04-22T05:00:33.811Z,6.27
2023-04-22T05:03:01.034Z,6.93
2023-04-22T05:05:28.576Z,6.60
2023-04-22T05:07:55.486Z,6.93
2023-04-22T05:10:22.336Z,6.53
2023-04-22T05:12:49.224Z,6.53
2023-04-22T05:15:17.294Z,6.00
2023-04-22T05:17:44.551Z,6.27
2023-04-22T05:20:11.679Z,6.20
2023-04-22T05:22:38.566Z,5.87
2023-04-22T05:25:05.731Z,6.00
2023-04-22T05:27:32.745Z,6.20
2023-04-22T05:29:59.588Z,6.30
2023-04-22T05:32:26.836Z,6.27
2023-04-22T05:34:53.733Z,6.80
2023-04-22T05:37:20.506Z,6.07
2023-04-22T05:39:47.415Z,6.30
2023-04-22T05:42:14.258Z,6.20
2023-04-22T05:44:42.290Z,5.83
2023-04-22T05:47:09.537Z,5.80
2023-04-22T05:49:36.436Z,6.00
2023-04-22T05:52:04.361Z,6.20
2023-04-22T05:54:31.387Z,5.80
2023-04-22T05:56:58.586Z,5.87
2023-04-22T05:59:25.377Z,6.73
2023-04-22T06:01:52.203Z,6.20
2023-04-22T06:04:19.893Z,6.33
2023-04-22T06:06:48.392Z,7.10
2023-04-22T06:09:15.546Z,6.20
2023-04-22T06:11:42.324Z,6.50
2023-04-22T06:14:09.127Z,6.33
2023-04-22T06:16:36.204Z,6.50
2023-04-22T06:19:03.171Z,6.77
2023-04-22T06:21:32.779Z,6.60
2023-04-22T06:24:01.400Z,6.50
2023-04-22T06:26:28.313Z,6.30
2023-04-22T06:28:55.103Z,6.57
2023-04-22T06:31:21.930Z,6.50
2023-04-22T06:33:48.880Z,6.40
2023-04-22T06:36:15.980Z,6.10
2023-04-22T06:38:43.928Z,7.60
2023-04-22T06:41:10.812Z,6.13
2023-04-22T06:43:37.958Z,6.37
2023-04-22T06:46:05.011Z,6.97
2023-04-22T06:48:31.935Z,6.33
2023-04-22T06:50:59.052Z,6.40
2023-04-22T06:53:26.571Z,6.07
2023-04-22T06:55:54.643Z,5.83
2023-04-22T06:58:21.900Z,6.03
2023-04-22T07:00:48.717Z,5.60
2023-04-22T07:03:15.616Z,5.80
2023-04-22T07:05:43.181Z,5.93
2023-04-22T07:08:10.289Z,5.73
2023-04-22T07:10:37.323Z,7.13
2023-04-22T07:13:04.170Z,8.43
2023-04-22T07:15:31.142Z,7.70
2023-04-22T07:17:58.887Z,6.00
2023-04-22T07:20:25.775Z,5.43
2023-04-22T07:22:53.947Z,5.73
2023-04-22T07:25:21.892Z,5.60
2023-04-22T07:27:52.373Z,5.60
2023-04-22T07:30:19.334Z,5.30
2023-04-22T07:32:48.329Z,4.60
2023-04-22T07:35:16.904Z,5.37
2023-04-22T07:37:43.914Z,4.70
2023-04-22T07:40:16.221Z,5.13
2023-04-22T07:42:43.052Z,4.10
2023-04-22T07:45:13.801Z,4.17
2023-04-22T07:47:40.887Z,4.30
2023-04-22T07:50:08.364Z,4.40
2023-04-22T07:52:36.337Z,4.10
2023-04-22T07:55:03.456Z,4.60
2023-04-22T07:57:30.423Z,4.53
2023-04-22T07:59:57.241Z,4.43
2023-04-22T08:02:25.253Z,4.40
2023-04-22T08:04:52.719Z,4.10
2023-04-22T08:09:49.387Z,4.33
2023-04-22T08:12:16.239Z,4.30
2023-04-22T08:14:43.029Z,4.07
2023-04-22T08:17:10.050Z,4.30
2023-04-22T08:19:37.147Z,4.10
2023-04-22T08:22:04.902Z,4.05
2023-04-22T08:24:32.405Z,4.43
2023-04-22T08:26:59.248Z,4.40
2023-04-22T08:29:26.472Z,8.85
2023-04-22T08:31:53.984Z,5.85
2023-04-22T08:34:23.817Z,6.68
2023-04-22T08:36:50.805Z,4.72
2023-04-22T08:39:18.332Z,4.93
2023-04-22T08:41:46.844Z,4.45
2023-04-22T08:44:15.370Z,3.80
2023-04-22T08:46:47.247Z,3.88
2023-04-22T08:49:15.961Z,4.30
2023-04-22T08:51:44.452Z,4.10
2023-04-22T08:54:12.557Z,3.97
2023-04-22T08:56:44.828Z,3.83
2023-04-22T08:59:13.431Z,3.70
2023-04-22T09:01:45.314Z,3.45
2023-04-22T09:04:18.899Z,4.00
2023-04-22T09:06:46.150Z,3.78
2023-04-22T09:09:14.286Z,3.13
2023-04-22T09:11:41.601Z,3.08
2023-04-22T09:14:08.519Z,2.90
2023-04-22T09:16:42.667Z,3.10
2023-04-22T09:19:13.955Z,2.33
2023-04-22T09:21:41.679Z,2.70
2023-04-22T09:24:10.571Z,2.90
2023-04-22T09:26:42.262Z,2.83
2023-04-22T09:29:14.972Z,3.13
2023-04-22T09:31:42.217Z,3.40
2023-04-22T09:34:18.866Z,3.45
2023-04-22T09:36:46.897Z,3.17
2023-04-22T09:42:01.203Z,3.00
2023-04-22T09:44:29.165Z,2.83
2023-04-22T09:46:56.209Z,3.00
2023-04-22T09:49:23.480Z,3.00
2023-04-22T09:51:56.633Z,3.38
2023-04-22T09:54:23.896Z,3.22
2023-04-22T09:56:53.000Z,2.90
2023-04-22T09:59:21.735Z,3.28
2023-04-22T10:01:54.099Z,2.75
2023-04-22T10:04:25.554Z,3.00
2023-04-22T10:06:56.312Z,2.90
2023-04-22T10:09:25.331Z,3.35
2023-04-22T10:11:56.824Z,5.20
2023-04-22T10:14:25.057Z,3.17
2023-04-22T10:16:59.405Z,3.10
2023-04-22T10:19:27.564Z,2.90
2023-04-22T10:21:57.359Z,3.05
2023-04-22T10:24:28.176Z,3.17
2023-04-22T10:27:00.401Z,3.22
2023-04-22T10:29:38.961Z,2.95
2023-04-22T10:32:26.691Z,2.67
2023-04-22T10:35:14.522Z,2.70
2023-04-22T10:37:45.818Z,2.60
2023-04-22T10:40:17.270Z,2.75
2023-04-22T10:42:52.771Z,2.50
2023-04-22T10:45:24.021Z,2.50
2023-04-22T10:47:50.993Z,2.30
2023-04-22T10:50:27.126Z,2.25
2023-04-22T10:53:03.205Z,2.55
2023-04-22T10:56:01.014Z,2.38
2023-04-22T10:58:27.874Z,2.63
2023-04-22T11:01:02.866Z,2.83
2023-04-22T11:03:30.983Z,3.22
2023-04-22T11:06:18.407Z,3.20
2023-04-22T11:08:50.569Z,3.17
2023-04-22T11:11:18.911Z,3.13
2023-04-22T11:13:50.477Z,3.13
2023-04-22T11:16:22.353Z,3.03
2023-04-22T11:18:50.416Z,3.38
2023-04-22T11:21:18.049Z,3.45
2023-04-22T11:23:52.901Z,2.92
2023-04-22T11:26:32.403Z,2.83
2023-04-22T11:29:00.550Z,3.20
2023-04-22T11:31:27.812Z,2.60
2023-04-22T11:33:59.354Z,2.22
2023-04-22T11:36:26.552Z,2.00
2023-04-22T11:38:56.713Z,1.88
2023-04-22T11:41:23.808Z,1.83
2023-04-22T11:43:50.763Z,2.17
2023-04-22T11:46:28.784Z,2.13
2023-04-22T11:49:20.192Z,2.50
2023-04-22T11:52:05.262Z,2.38
2023-04-22T11:54:32.923Z,2.47
2023-04-22T11:57:11.721Z,3.40
2023-04-22T11:59:39.426Z,2.25
2023-04-22T12:02:07.688Z,3.45
2023-04-22T12:04:41.411Z,3.65
2023-04-22T12:07:08.658Z,3.30
2023-04-22T12:09:35.609Z,3.28
2023-04-22T12:12:05.887Z,2.35
2023-04-22T12:14:36.545Z,2.30
2023-04-22T12:17:08.685Z,2.20
2023-04-22T12:19:36.505Z,1.80
2023-04-22T12:22:03.875Z,1.77
2023-04-22T12:24:31.147Z,1.90
2023-04-22T12:26:58.677Z,2.13
2023-04-22T12:29:33.301Z,2.03
2023-04-22T12:32:00.938Z,2.33
2023-04-22T12:34:28.816Z,3.30
2023-04-22T12:36:59.146Z,2.60
2023-04-22T12:39:29.073Z,2.65
2023-04-22T12:41:55.990Z,2.55
2023-04-22T12:44:25.058Z,2.60
2023-04-22T12:46:52.333Z,2.80
2023-04-22T12:49:19.229Z,3.13
2023-04-22T12:51:45.991Z,3.17
2023-04-22T12:54:12.777Z,3.20
2023-04-22T12:56:40.661Z,3.60
2023-04-22T12:59:07.748Z,3.53
2023-04-22T13:01:35.882Z,3.33
2023-04-22T13:04:03.587Z,4.35
2023-04-22T13:06:32.410Z,3.70
2023-04-22T13:08:59.662Z,3.70
2023-04-22T13:11:29.201Z,3.70
2023-04-22T13:13:56.036Z,3.38
2023-04-22T13:16:22.921Z,3.40
2023-04-22T13:18:49.803Z,3.35
2023-04-22T13:21:16.602Z,3.03
2023-04-22T13:23:44.173Z,2.90
2023-04-22T13:26:11.999Z,3.63
2023-04-22T13:28:39.063Z,3.08
2023-04-22T13:31:06.200Z,3.10
2023-04-22T13:33:33.036Z,3.10
2023-04-22T13:36:00.818Z,3.10
2023-04-22T13:38:28.023Z,2.92
2023-04-22T13:40:54.821Z,3.28
2023-04-22T13:43:21.623Z,3.70
2023-04-22T13:45:48.878Z,3.13
2023-04-22T13:48:16.101Z,3.25
2023-04-22T13:50:43.376Z,3.08
2023-04-22T13:53:13.085Z,2.92
2023-04-22T13:55:40.972Z,2.83
2023-04-22T13:58:08.428Z,2.58
2023-04-22T14:00:36.136Z,2.60
2023-04-22T14:03:03.127Z,2.88
2023-04-22T14:05:30.037Z,3.22
2023-04-22T14:07:59.493Z,3.05
2023-04-22T14:10:28.569Z,3.00
2023-04-22T14:12:55.957Z,3.13
2023-04-22T14:15:25.733Z,3.00
2023-04-22T14:17:53.589Z,2.85
2023-04-22T14:20:21.476Z,2.70
2023-04-22T14:22:48.287Z,3.33
2023-04-22T14:25:15.206Z,3.30
2023-04-22T14:27:42.448Z,3.47
2023-04-22T14:30:09.823Z,2.80
2023-04-22T14:32:36.821Z,2.90
2023-04-22T14:35:04.169Z,3.00
2023-04-22T14:37:32.151Z,2.55
2023-04-22T14:39:59.310Z,2.60
2023-04-22T14:42:26.501Z,2.45
2023-04-22T14:44:53.498Z,2.60
2023-04-22T14:47:20.695Z,2.53
2023-04-22T14:49:47.571Z,2.53
2023-04-22T14:52:14.511Z,3.13
2023-04-22T14:54:41.358Z,2.67
2023-04-22T14:57:08.378Z,2.60
2023-04-22T14:59:35.865Z,2.28
2023-04-22T15:02:02.828Z,3.40
2023-04-22T15:04:30.023Z,2.72
2023-04-22T15:07:01.250Z,2.28
2023-04-22T15:09:28.124Z,2.67
2023-04-22T15:11:56.491Z,2.83
2023-04-22T15:14:23.490Z,2.50
2023-04-22T15:16:50.723Z,2.80
2023-04-22T15:19:17.639Z,2.72
2023-04-22T15:21:44.518Z,3.00
2023-04-22T15:24:11.703Z,2.67
2023-04-22T15:26:42.938Z,2.70
2023-04-22T15:29:09.762Z,2.40
2023-04-22T15:31:36.768Z,2.72
2023-04-22T15:34:03.697Z,2.60
2023-04-22T15:36:31.577Z,2.60
2023-04-22T15:38:59.288Z,2.63
2023-04-22T15:41:27.254Z,2.80
2023-04-22T15:43:54.152Z,2.50
2023-04-22T15:46:21.978Z,2.97
2023-04-22T15:48:50.387Z,2.10
2023-04-22T15:51:18.555Z,2.75
2023-04-22T15:53:46.106Z,2.55
2023-04-22T15:56:13.593Z,3.00
2023-04-22T15:58:40.558Z,2.72
2023-04-22T16:01:18.751Z,3.13
2023-04-22T16:03:49.700Z,2.90
2023-04-22T16:06:18.080Z,2.55
2023-04-22T16:09:13.050Z,2.78
2023-04-22T16:17:55.938Z,2.72
2023-04-22T16:20:22.845Z,2.97
2023-04-22T16:22:49.863Z,2.78
2023-04-22T16:25:16.838Z,2.88
2023-04-22T16:27:43.683Z,4.05
2023-04-22T16:30:11.140Z,3.13
2023-04-22T16:32:38.010Z,2.70
2023-04-22T16:35:05.290Z,3.05
2023-04-22T16:37:32.435Z,2.60
2023-04-22T16:40:01.247Z,2.58
2023-04-22T16:42:28.183Z,2.80
2023-04-22T16:44:55.325Z,3.08
2023-04-22T16:47:22.189Z,2.75
2023-04-22T16:49:49.044Z,3.00
2023-04-22T16:52:19.572Z,2.80
2023-04-22T16:54:46.474Z,2.92
2023-04-22T16:57:13.376Z,3.10
2023-04-22T16:59:40.689Z,2.75
2023-04-22T17:02:08.608Z,3.03
2023-04-22T17:07:57.704Z,2.87
2023-04-22T17:10:24.530Z,2.75
2023-04-22T17:12:53.323Z,2.90
2023-04-22T17:15:20.910Z,2.80
2023-04-22T17:17:47.870Z,2.70
2023-04-22T17:20:20.766Z,2.70
2023-04-22T17:22:47.610Z,2.90
2023-04-22T17:25:14.582Z,2.50
2023-04-22T17:27:41.587Z,2.70
2023-04-22T17:30:08.833Z,2.30
2023-04-22T17:32:35.895Z,2.73
2023-04-22T17:35:02.900Z,3.03
2023-04-22T17:37:29.819Z,2.90
2023-04-22T17:39:56.708Z,3.00
2023-04-22T17:42:27.263Z,3.07
2023-04-22T17:44:59.390Z,2.77
2023-04-22T17:47:26.284Z,3.00
2023-04-22T17:49:53.129Z,2.87
2023-04-22T17:52:19.984Z,2.70
2023-04-22T17:54:46.942Z,2.77
2023-04-22T17:57:13.797Z,2.83
2023-04-22T17:59:40.850Z,2.90
2023-04-22T18:02:10.774Z,2.80
2023-04-22T18:04:37.674Z,3.40
2023-04-22T18:07:05.186Z,3.00
2023-04-22T18:09:32.060Z,3.20
2023-04-22T18:11:58.963Z,2.90
2023-04-22T18:14:26.749Z,3.20
2023-04-22T18:16:54.088Z,3.00
2023-04-22T18:19:21.312Z,3.33
2023-04-22T18:21:59.174Z,2.77
2023-04-22T18:24:27.264Z,3.13
2023-04-22T18:26:54.196Z,3.23
2023-04-22T18:29:21.154Z,3.10
2023-04-22T18:31:48.478Z,3.50
2023-04-22T18:34:24.998Z,3.73
2023-04-22T18:36:51.973Z,4.10
2023-04-22T18:39:18.938Z,4.40
2023-04-22T18:41:46.002Z,4.20
2023-04-22T18:44:13.188Z,4.40
2023-04-22T18:46:40.203Z,4.70
2023-04-22T18:49:11.334Z,5.03
2023-04-22T18:51:39.860Z,4.70
2023-04-22T18:54:08.824Z,4.23
2023-04-22T18:56:35.727Z,4.70
2023-04-22T18:59:03.038Z,4.60
2023-04-22T19:01:29.940Z,4.70
2023-04-22T19:03:57.011Z,4.80
2023-04-22T19:06:23.954Z,5.00
2023-04-22T19:08:52.930Z,5.07
2023-04-22T19:11:20.467Z,5.43
2023-04-22T19:13:47.463Z,5.30
2023-04-22T19:16:14.830Z,4.97
2023-04-22T19:18:43.341Z,5.50
2023-04-22T19:21:10.595Z,5.13
2023-04-22T19:23:38.411Z,5.70
2023-04-22T19:26:05.386Z,5.17
2023-04-22T19:28:32.282Z,5.43
2023-04-22T19:31:00.957Z,5.57
2023-04-22T19:33:27.972Z,5.40
2023-04-22T19:35:54.828Z,6.57
2023-04-22T19:38:23.236Z,5.10
2023-04-22T19:40:50.724Z,5.47
2023-04-22T19:43:19.136Z,5.30
2023-04-22T19:45:49.035Z,4.97
2023-04-22T19:48:16.113Z,5.90
2023-04-22T19:50:44.765Z,5.37
2023-04-22T19:53:11.884Z,5.80
2023-04-22T19:55:39.546Z,6.10
2023-04-22T19:58:06.811Z,6.20
2023-04-22T20:00:35.336Z,6.53
2023-04-22T20:03:14.477Z,6.50
2023-04-22T20:05:43.183Z,6.00
2023-04-22T20:08:10.378Z,6.30
2023-04-22T20:10:58.554Z,6.80
2023-04-22T20:13:25.948Z,6.60
2023-04-22T20:15:53.544Z,6.17
2023-04-22T20:18:20.616Z,6.10
2023-04-22T20:20:48.581Z,6.33
2023-04-22T20:26:02.903Z,7.17
2023-04-22T20:29:07.939Z,6.47
2023-04-22T20:31:35.017Z,7.13
2023-04-22T20:34:02.703Z,6.90
2023-04-22T20:48:14.333Z,8.77
2023-04-22T20:51:03.051Z,8.20
2023-04-22T20:53:33.281Z,8.00
2023-04-22T20:56:00.195Z,7.70
2023-04-22T20:58:28.289Z,7.60
2023-04-22T21:00:55.709Z,8.20
2023-04-22T21:03:23.651Z,8.30
2023-04-22T21:05:52.434Z,8.47
2023-04-22T21:08:24.678Z,8.53
2023-04-22T21:11:14.665Z,9.20
2023-04-22T21:13:42.958Z,8.80
2023-04-22T21:16:11.208Z,9.00
2023-04-22T21:18:40.035Z,9.27
2023-04-22T21:21:08.306Z,9.47
2023-04-22T21:23:36.508Z,7.70
2023-04-22T21:26:03.777Z,8.60
2023-04-22T21:28:30.899Z,8.00
2023-04-22T21:30:58.127Z,8.60
2023-04-22T21:33:25.409Z,8.80
2023-04-22T21:35:52.713Z,9.53
2023-04-22T21:38:20.005Z,9.70
2023-04-22T21:40:47.809Z,9.97
2023-04-22T21:43:14.745Z,8.97
2023-04-22T21:45:41.577Z,9.70
2023-04-22T21:48:09.188Z,9.37
2023-04-22T21:50:36.483Z,9.23
2023-04-22T21:53:03.360Z,9.60
2023-04-22T21:55:30.328Z,9.53
2023-04-22T21:57:57.165Z,9.50
2023-04-22T22:00:25.273Z,10.00
2023-04-22T22:02:53.554Z,9.70
2023-04-22T22:05:20.723Z,9.87
2023-04-22T22:07:49.127Z,9.83
2023-04-22T22:10:20.769Z,10.40
2023-04-22T22:12:48.258Z,9.53
2023-04-22T22:15:19.215Z,9.50
2023-04-22T22:17:46.310Z,9.70
2023-04-22T22:20:22.079Z,10.10
2023-04-22T22:22:48.988Z,9.67
2023-04-22T22:25:18.897Z,9.33
2023-04-22T22:27:47.021Z,9.93
2023-04-22T22:32:45.801Z,9.97
2023-04-22T22:35:13.267Z,10.00
2023-04-22T22:37:41.359Z,9.60
2023-04-22T22:40:09.103Z,10.23
2023-04-22T22:42:36.238Z,10.47
2023-04-22T22:45:05.040Z,10.47
2023-04-22T22:47:32.144Z,10.43
2023-04-22T22:49:59.008Z,10.60
2023-04-22T22:52:32.302Z,10.90
2023-04-22T22:54:59.453Z,10.57
2023-04-22T22:57:36.248Z,11.17
2023-04-22T23:00:07.543Z,11.37
2023-04-22T23:16:20.964Z,12.77
2023-04-22T23:24:32.173Z,12.67
2023-04-22T23:27:03.433Z,12.13
2023-04-22T23:29:30.950Z,12.23
2023-04-22T23:32:05.437Z,12.13
2023-04-22T23:34:39.360Z,12.77
2023-04-22T23:37:07.238Z,13.17
2023-04-22T23:39:34.110Z,13.70
2023-04-22T23:42:15.925Z,13.77
2023-04-22T23:44:43.054Z,13.13
2023-04-22T23:47:10.255Z,14.13
2023-04-22T23:49:37.604Z,13.57
2023-04-22T23:52:04.512Z,13.80
2023-04-22T23:54:31.694Z,14.43
2023-04-22T23:56:58.710Z,14.10
2023-04-22T23:59:25.784Z,12.97
